sensor_id;sensor_type;location;lat;lon;timestamp;P1;durP1;ratioP1;P2;durP2;ratioP2
74941;SDS011;63506;49.346;8.798;2023-11-21T00:00:26;3.47;;;2.10;;
74941;SDS011;63506;49.346;8.798;2023-11-21T00:02:53;4.30;;;2.67;;
74941;SDS011;63506;49.346;8.798;2023-11-21T00:05:23;4.80;;;2.38;;
74941;SDS011;63506;49.346;8.798;2023-11-21T00:07:50;5.50;;;3.25;;
74941;SDS011;63506;49.346;8.798;2023-11-21T00:10:18;3.22;;;2.30;;
74941;SDS011;63506;49.346;8.798;2023-11-21T00:12:46;4.78;;;2.28;;
74941;SDS011;63506;49.346;8.798;2023-11-21T00:15:23;6.55;;;2.75;;
74941;SDS011;63506;49.346;8.798;2023-11-21T00:17:50;4.03;;;2.42;;
74941;SDS011;63506;49.346;8.798;2023-11-21T00:20:20;3.72;;;2.03;;
74941;SDS011;63506;49.346;8.798;2023-11-21T00:22:49;5.10;;;2.00;;
74941;SDS011;63506;49.346;8.798;2023-11-21T00:25:17;4.68;;;2.33;;
74941;SDS011;63506;49.346;8.798;2023-11-21T00:27:48;5.60;;;2.70;;
74941;SDS011;63506;49.346;8.798;2023-11-21T00:30:15;3.67;;;2.03;;
74941;SDS011;63506;49.346;8.798;2023-11-21T00:32:42;5.88;;;2.10;;
74941;SDS011;63506;49.346;8.798;2023-11-21T00:35:10;4.55;;;2.25;;
74941;SDS011;63506;49.346;8.798;2023-11-21T00:37:37;3.40;;;2.08;;
74941;SDS011;63506;49.346;8.798;2023-11-21T00:40:06;9.30;;;3.22;;
74941;SDS011;63506;49.346;8.798;2023-11-21T00:42:35;2.92;;;2.35;;
74941;SDS011;63506;49.346;8.798;2023-11-21T00:45:07;4.25;;;1.98;;
74941;SDS011;63506;49.346;8.798;2023-11-21T00:47:37;3.10;;;2.38;;
74941;SDS011;63506;49.346;8.798;2023-11-21T00:50:07;6.78;;;2.53;;
74941;SDS011;63506;49.346;8.798;2023-11-21T00:52:35;3.08;;;2.25;;
74941;SDS011;63506;49.346;8.798;2023-11-21T00:55:02;5.13;;;3.25;;
74941;SDS011;63506;49.346;8.798;2023-11-21T00:57:30;3.92;;;2.67;;
74941;SDS011;63506;49.346;8.798;2023-11-21T00:59:57;4.25;;;1.98;;
74941;SDS011;63506;49.346;8.798;2023-11-21T01:02:31;3.58;;;2.10;;
74941;SDS011;63506;49.346;8.798;2023-11-21T01:04:58;5.47;;;2.95;;
74941;SDS011;63506;49.346;8.798;2023-11-21T01:07:26;7.13;;;2.78;;
74941;SDS011;63506;49.346;8.798;2023-11-21T01:09:53;3.63;;;1.98;;
74941;SDS011;63506;49.346;8.798;2023-11-21T01:12:21;5.22;;;2.72;;
74941;SDS011;63506;49.346;8.798;2023-11-21T01:14:53;6.07;;;2.33;;
74941;SDS011;63506;49.346;8.798;2023-11-21T01:17:22;2.83;;;2.30;;
74941;SDS011;63506;49.346;8.798;2023-11-21T01:19:53;3.28;;;2.20;;
74941;SDS011;63506;49.346;8.798;2023-11-21T01:22:26;4.70;;;2.75;;
74941;SDS011;63506;49.346;8.798;2023-11-21T01:24:56;6.72;;;2.80;;
74941;SDS011;63506;49.346;8.798;2023-11-21T01:27:26;3.08;;;2.47;;
74941;SDS011;63506;49.346;8.798;2023-11-21T01:29:53;3.33;;;2.10;;
74941;SDS011;63506;49.346;8.798;2023-11-21T01:32:21;5.97;;;1.77;;
74941;SDS011;63506;49.346;8.798;2023-11-21T01:34:50;5.63;;;3.35;;
74941;SDS011;63506;49.346;8.798;2023-11-21T01:37:21;4.38;;;2.33;;
74941;SDS011;63506;49.346;8.798;2023-11-21T01:39:48;3.33;;;1.63;;
74941;SDS011;63506;49.346;8.798;2023-11-21T01:42:18;4.43;;;3.28;;
74941;SDS011;63506;49.346;8.798;2023-11-21T01:44:48;5.50;;;2.03;;
74941;SDS011;63506;49.346;8.798;2023-11-21T01:47:15;2.65;;;1.58;;
74941;SDS011;63506;49.346;8.798;2023-11-21T01:49:43;4.55;;;2.60;;
74941;SDS011;63506;49.346;8.798;2023-11-21T01:52:13;3.97;;;2.30;;
74941;SDS011;63506;49.346;8.798;2023-11-21T01:54:45;3.63;;;2.33;;
74941;SDS011;63506;49.346;8.798;2023-11-21T01:57:13;5.45;;;1.65;;
74941;SDS011;63506;49.346;8.798;2023-11-21T01:59:43;2.40;;;1.85;;
74941;SDS011;63506;49.346;8.798;2023-11-21T02:02:11;2.75;;;2.30;;
74941;SDS011;63506;49.346;8.798;2023-11-21T02:04:39;2.75;;;2.13;;
74941;SDS011;63506;49.346;8.798;2023-11-21T02:07:06;2.97;;;2.25;;
74941;SDS011;63506;49.346;8.798;2023-11-21T02:09:33;9.38;;;3.42;;
74941;SDS011;63506;49.346;8.798;2023-11-21T02:12:05;7.53;;;2.30;;
74941;SDS011;63506;49.346;8.798;2023-11-21T02:14:36;9.45;;;1.83;;
74941;SDS011;63506;49.346;8.798;2023-11-21T02:17:04;4.55;;;2.00;;
74941;SDS011;63506;49.346;8.798;2023-11-21T02:19:36;3.47;;;1.95;;
74941;SDS011;63506;49.346;8.798;2023-11-21T02:22:04;4.05;;;2.30;;
74941;SDS011;63506;49.346;8.798;2023-11-21T02:24:36;2.58;;;1.70;;
74941;SDS011;63506;49.346;8.798;2023-11-21T02:27:06;4.95;;;2.00;;
74941;SDS011;63506;49.346;8.798;2023-11-21T02:29:33;3.72;;;1.70;;
74941;SDS011;63506;49.346;8.798;2023-11-21T02:32:03;6.18;;;1.98;;
74941;SDS011;63506;49.346;8.798;2023-11-21T02:34:31;4.50;;;3.30;;
74941;SDS011;63506;49.346;8.798;2023-11-21T02:36:59;5.85;;;1.73;;
74941;SDS011;63506;49.346;8.798;2023-11-21T02:39:26;3.88;;;2.20;;
74941;SDS011;63506;49.346;8.798;2023-11-21T02:41:54;4.22;;;2.33;;
74941;SDS011;63506;49.346;8.798;2023-11-21T02:44:21;5.63;;;2.22;;
74941;SDS011;63506;49.346;8.798;2023-11-21T02:46:49;5.97;;;2.40;;
74941;SDS011;63506;49.346;8.798;2023-11-21T02:49:16;4.93;;;2.15;;
74941;SDS011;63506;49.346;8.798;2023-11-21T02:51:43;5.07;;;2.30;;
74941;SDS011;63506;49.346;8.798;2023-11-21T02:54:10;4.93;;;1.95;;
74941;SDS011;63506;49.346;8.798;2023-11-21T02:56:41;5.30;;;1.38;;
74941;SDS011;63506;49.346;8.798;2023-11-21T02:59:08;4.50;;;2.03;;
74941;SDS011;63506;49.346;8.798;2023-11-21T03:01:35;2.83;;;1.65;;
74941;SDS011;63506;49.346;8.798;2023-11-21T03:04:03;5.22;;;2.83;;
74941;SDS011;63506;49.346;8.798;2023-11-21T03:06:30;3.85;;;2.00;;
74941;SDS011;63506;49.346;8.798;2023-11-21T03:08:57;5.72;;;2.00;;
74941;SDS011;63506;49.346;8.798;2023-11-21T03:11:27;3.42;;;1.90;;
74941;SDS011;63506;49.346;8.798;2023-11-21T03:13:56;3.65;;;1.50;;
74941;SDS011;63506;49.346;8.798;2023-11-21T03:16:25;4.85;;;1.77;;
74941;SDS011;63506;49.346;8.798;2023-11-21T03:18:52;2.35;;;1.63;;
74941;SDS011;63506;49.346;8.798;2023-11-21T03:21:19;2.28;;;1.77;;
74941;SDS011;63506;49.346;8.798;2023-11-21T03:23:46;2.97;;;1.92;;
74941;SDS011;63506;49.346;8.798;2023-11-21T03:26:14;1.92;;;1.58;;
74941;SDS011;63506;49.346;8.798;2023-11-21T03:28:44;2.88;;;1.85;;
74941;SDS011;63506;49.346;8.798;2023-11-21T03:31:14;4.20;;;1.67;;
74941;SDS011;63506;49.346;8.798;2023-11-21T03:33:49;2.25;;;1.67;;
74941;SDS011;63506;49.346;8.798;2023-11-21T03:36:19;4.57;;;2.05;;
74941;SDS011;63506;49.346;8.798;2023-11-21T03:38:47;2.72;;;1.73;;
74941;SDS011;63506;49.346;8.798;2023-11-21T03:41:16;3.45;;;2.25;;
74941;SDS011;63506;49.346;8.798;2023-11-21T03:43:43;8.45;;;2.00;;
74941;SDS011;63506;49.346;8.798;2023-11-21T03:46:13;2.40;;;1.77;;
74941;SDS011;63506;49.346;8.798;2023-11-21T03:48:42;2.75;;;1.25;;
74941;SDS011;63506;49.346;8.798;2023-11-21T03:51:10;2.22;;;1.60;;
74941;SDS011;63506;49.346;8.798;2023-11-21T03:53:37;5.07;;;2.15;;
74941;SDS011;63506;49.346;8.798;2023-11-21T03:56:08;5.53;;;2.40;;
74941;SDS011;63506;49.346;8.798;2023-11-21T03:58:39;2.90;;;2.15;;
74941;SDS011;63506;49.346;8.798;2023-11-21T04:01:06;2.25;;;1.75;;
74941;SDS011;63506;49.346;8.798;2023-11-21T04:03:33;4.80;;;3.15;;
74941;SDS011;63506;49.346;8.798;2023-11-21T04:06:01;3.95;;;2.67;;
74941;SDS011;63506;49.346;8.798;2023-11-21T04:08:30;3.70;;;2.15;;
74941;SDS011;63506;49.346;8.798;2023-11-21T04:11:01;2.53;;;1.98;;
74941;SDS011;63506;49.346;8.798;2023-11-21T04:13:32;7.35;;;2.83;;
74941;SDS011;63506;49.346;8.798;2023-11-21T04:15:59;3.38;;;2.10;;
74941;SDS011;63506;49.346;8.798;2023-11-21T04:18:29;5.65;;;2.85;;
74941;SDS011;63506;49.346;8.798;2023-11-21T04:20:58;2.90;;;2.53;;
74941;SDS011;63506;49.346;8.798;2023-11-21T04:23:25;3.85;;;2.85;;
74941;SDS011;63506;49.346;8.798;2023-11-21T04:25:55;6.03;;;2.83;;
74941;SDS011;63506;49.346;8.798;2023-11-21T04:28:23;6.40;;;3.25;;
74941;SDS011;63506;49.346;8.798;2023-11-21T04:30:50;5.60;;;2.55;;
74941;SDS011;63506;49.346;8.798;2023-11-21T04:33:17;4.63;;;3.17;;
74941;SDS011;63506;49.346;8.798;2023-11-21T04:35:47;3.67;;;3.08;;
74941;SDS011;63506;49.346;8.798;2023-11-21T04:38:14;2.88;;;2.28;;
74941;SDS011;63506;49.346;8.798;2023-11-21T04:40:41;4.18;;;3.05;;
74941;SDS011;63506;49.346;8.798;2023-11-21T04:43:14;3.65;;;3.35;;
74941;SDS011;63506;49.346;8.798;2023-11-21T04:45:42;3.45;;;3.13;;
74941;SDS011;63506;49.346;8.798;2023-11-21T04:48:12;3.78;;;2.65;;
74941;SDS011;63506;49.346;8.798;2023-11-21T04:50:40;5.22;;;2.78;;
74941;SDS011;63506;49.346;8.798;2023-11-21T04:53:07;3.67;;;2.40;;
74941;SDS011;63506;49.346;8.798;2023-11-21T04:55:34;7.47;;;4.18;;
74941;SDS011;63506;49.346;8.798;2023-11-21T04:58:01;8.02;;;3.70;;
74941;SDS011;63506;49.346;8.798;2023-11-21T05:00:31;5.15;;;3.10;;
74941;SDS011;63506;49.346;8.798;2023-11-21T05:02:58;3.88;;;2.38;;
74941;SDS011;63506;49.346;8.798;2023-11-21T05:05:27;4.45;;;2.75;;
74941;SDS011;63506;49.346;8.798;2023-11-21T05:07:55;3.25;;;2.92;;
74941;SDS011;63506;49.346;8.798;2023-11-21T05:10:22;3.72;;;2.55;;
74941;SDS011;63506;49.346;8.798;2023-11-21T05:12:49;3.13;;;2.83;;
74941;SDS011;63506;49.346;8.798;2023-11-21T05:15:17;3.10;;;2.65;;
74941;SDS011;63506;49.346;8.798;2023-11-21T05:17:48;12.43;;;3.30;;
74941;SDS011;63506;49.346;8.798;2023-11-21T05:20:17;3.05;;;2.70;;
74941;SDS011;63506;49.346;8.798;2023-11-21T05:22:47;3.13;;;2.67;;
74941;SDS011;63506;49.346;8.798;2023-11-21T05:25:15;3.90;;;2.25;;
74941;SDS011;63506;49.346;8.798;2023-11-21T05:27:43;3.60;;;2.75;;
74941;SDS011;63506;49.346;8.798;2023-11-21T05:30:13;3.42;;;2.80;;
74941;SDS011;63506;49.346;8.798;2023-11-21T05:32:41;3.88;;;2.85;;
74941;SDS011;63506;49.346;8.798;2023-11-21T05:35:10;4.72;;;3.10;;
74941;SDS011;63506;49.346;8.798;2023-11-21T05:37:44;5.68;;;3.05;;
74941;SDS011;63506;49.346;8.798;2023-11-21T05:40:14;6.00;;;3.55;;
74941;SDS011;63506;49.346;8.798;2023-11-21T05:42:42;4.22;;;3.38;;
74941;SDS011;63506;49.346;8.798;2023-11-21T05:45:09;2.88;;;2.55;;
74941;SDS011;63506;49.346;8.798;2023-11-21T05:47:37;5.22;;;3.03;;
74941;SDS011;63506;49.346;8.798;2023-11-21T05:50:07;4.53;;;3.45;;
74941;SDS011;63506;49.346;8.798;2023-11-21T05:52:41;8.35;;;3.38;;
74941;SDS011;63506;49.346;8.798;2023-11-21T05:55:09;3.70;;;3.13;;
74941;SDS011;63506;49.346;8.798;2023-11-21T05:57:39;4.57;;;3.42;;
74941;SDS011;63506;49.346;8.798;2023-11-21T06:00:08;4.90;;;3.63;;
74941;SDS011;63506;49.346;8.798;2023-11-21T06:02:41;4.10;;;3.72;;
74941;SDS011;63506;49.346;8.798;2023-11-21T06:05:09;4.25;;;3.42;;
74941;SDS011;63506;49.346;8.798;2023-11-21T06:07:36;3.10;;;2.88;;
74941;SDS011;63506;49.346;8.798;2023-11-21T06:10:08;3.53;;;3.22;;
74941;SDS011;63506;49.346;8.798;2023-11-21T06:12:43;6.38;;;3.13;;
74941;SDS011;63506;49.346;8.798;2023-11-21T06:15:10;4.57;;;4.00;;
74941;SDS011;63506;49.346;8.798;2023-11-21T06:20:15;4.13;;;3.13;;
74941;SDS011;63506;49.346;8.798;2023-11-21T06:22:48;5.53;;;3.42;;
74941;SDS011;63506;49.346;8.798;2023-11-21T06:25:18;4.03;;;3.53;;
74941;SDS011;63506;49.346;8.798;2023-11-21T06:27:48;5.68;;;3.70;;
74941;SDS011;63506;49.346;8.798;2023-11-21T06:30:15;3.50;;;2.88;;
74941;SDS011;63506;49.346;8.798;2023-11-21T06:32:48;5.95;;;3.85;;
74941;SDS011;63506;49.346;8.798;2023-11-21T06:35:16;5.53;;;4.63;;
74941;SDS011;63506;49.346;8.798;2023-11-21T06:37:46;5.88;;;5.28;;
74941;SDS011;63506;49.346;8.798;2023-11-21T06:40:14;5.35;;;4.80;;
74941;SDS011;63506;49.346;8.798;2023-11-21T06:42:45;6.13;;;4.60;;
74941;SDS011;63506;49.346;8.798;2023-11-21T06:45:15;5.40;;;4.70;;
74941;SDS011;63506;49.346;8.798;2023-11-21T06:47:42;5.57;;;4.45;;
74941;SDS011;63506;49.346;8.798;2023-11-21T06:50:10;5.78;;;3.97;;
74941;SDS011;63506;49.346;8.798;2023-11-21T06:52:37;4.28;;;3.88;;
74941;SDS011;63506;49.346;8.798;2023-11-21T06:55:09;5.55;;;4.22;;
74941;SDS011;63506;49.346;8.798;2023-11-21T06:57:39;4.15;;;3.72;;
74941;SDS011;63506;49.346;8.798;2023-11-21T07:00:10;6.30;;;4.40;;
74941;SDS011;63506;49.346;8.798;2023-11-21T07:02:38;5.05;;;3.90;;
74941;SDS011;63506;49.346;8.798;2023-11-21T07:05:08;5.13;;;3.95;;
74941;SDS011;63506;49.346;8.798;2023-11-21T07:07:37;4.88;;;3.53;;
74941;SDS011;63506;49.346;8.798;2023-11-21T07:10:05;6.57;;;3.85;;
74941;SDS011;63506;49.346;8.798;2023-11-21T07:12:32;7.53;;;5.05;;
74941;SDS011;63506;49.346;8.798;2023-11-21T07:14:59;4.70;;;4.22;;
74941;SDS011;63506;49.346;8.798;2023-11-21T07:17:29;10.40;;;4.30;;
74941;SDS011;63506;49.346;8.798;2023-11-21T07:19:59;5.55;;;3.97;;
74941;SDS011;63506;49.346;8.798;2023-11-21T07:22:26;4.82;;;4.32;;
74941;SDS011;63506;49.346;8.798;2023-11-21T07:24:53;4.35;;;3.95;;
74941;SDS011;63506;49.346;8.798;2023-11-21T07:27:22;4.72;;;4.22;;
74941;SDS011;63506;49.346;8.798;2023-11-21T07:29:51;5.47;;;3.90;;
74941;SDS011;63506;49.346;8.798;2023-11-21T07:32:26;4.35;;;3.95;;
74941;SDS011;63506;49.346;8.798;2023-11-21T07:34:55;4.70;;;4.13;;
74941;SDS011;63506;49.346;8.798;2023-11-21T07:37:26;4.78;;;4.28;;
74941;SDS011;63506;49.346;8.798;2023-11-21T07:39:56;6.75;;;6.22;;
74941;SDS011;63506;49.346;8.798;2023-11-21T07:42:23;5.05;;;4.55;;
74941;SDS011;63506;49.346;8.798;2023-11-21T07:44:55;6.25;;;5.07;;
74941;SDS011;63506;49.346;8.798;2023-11-21T07:47:25;7.55;;;4.68;;
74941;SDS011;63506;49.346;8.798;2023-11-21T07:49:56;6.82;;;4.10;;
74941;SDS011;63506;49.346;8.798;2023-11-21T07:52:23;6.05;;;4.97;;
74941;SDS011;63506;49.346;8.798;2023-11-21T07:54:53;5.45;;;4.60;;
74941;SDS011;63506;49.346;8.798;2023-11-21T07:57:20;7.68;;;5.60;;
74941;SDS011;63506;49.346;8.798;2023-11-21T07:59:50;6.07;;;4.80;;
74941;SDS011;63506;49.346;8.798;2023-11-21T08:02:21;5.15;;;4.50;;
74941;SDS011;63506;49.346;8.798;2023-11-21T08:04:51;6.38;;;4.95;;
74941;SDS011;63506;49.346;8.798;2023-11-21T08:07:19;6.03;;;4.93;;
74941;SDS011;63506;49.346;8.798;2023-11-21T08:09:47;5.68;;;5.00;;
74941;SDS011;63506;49.346;8.798;2023-11-21T08:12:15;5.13;;;4.35;;
74941;SDS011;63506;49.346;8.798;2023-11-21T08:14:45;5.07;;;4.07;;
74941;SDS011;63506;49.346;8.798;2023-11-21T08:17:15;5.43;;;4.43;;
74941;SDS011;63506;49.346;8.798;2023-11-21T08:19:44;4.72;;;4.30;;
74941;SDS011;63506;49.346;8.798;2023-11-21T08:22:15;6.00;;;5.15;;
74941;SDS011;63506;49.346;8.798;2023-11-21T08:24:44;6.38;;;4.63;;
74941;SDS011;63506;49.346;8.798;2023-11-21T08:27:14;6.47;;;5.65;;
74941;SDS011;63506;49.346;8.798;2023-11-21T08:29:44;7.10;;;6.20;;
74941;SDS011;63506;49.346;8.798;2023-11-21T08:32:14;8.90;;;6.70;;
74941;SDS011;63506;49.346;8.798;2023-11-21T08:34:44;8.45;;;6.60;;
74941;SDS011;63506;49.346;8.798;2023-11-21T08:37:14;8.63;;;6.38;;
74941;SDS011;63506;49.346;8.798;2023-11-21T08:39:45;7.72;;;5.78;;
74941;SDS011;63506;49.346;8.798;2023-11-21T08:42:16;8.98;;;7.20;;
74941;SDS011;63506;49.346;8.798;2023-11-21T08:44:46;7.88;;;6.93;;
74941;SDS011;63506;49.346;8.798;2023-11-21T08:47:13;10.27;;;6.40;;
74941;SDS011;63506;49.346;8.798;2023-11-21T08:49:42;9.93;;;7.32;;
74941;SDS011;63506;49.346;8.798;2023-11-21T08:52:10;10.23;;;6.10;;
74941;SDS011;63506;49.346;8.798;2023-11-21T08:54:38;8.27;;;6.32;;
74941;SDS011;63506;49.346;8.798;2023-11-21T08:57:12;10.47;;;7.70;;
74941;SDS011;63506;49.346;8.798;2023-11-21T08:59:39;9.90;;;5.85;;
74941;SDS011;63506;49.346;8.798;2023-11-21T09:02:08;5.85;;;4.85;;
74941;SDS011;63506;49.346;8.798;2023-11-21T09:04:38;9.98;;;6.90;;
74941;SDS011;63506;49.346;8.798;2023-11-21T09:07:05;8.70;;;6.35;;
74941;SDS011;63506;49.346;8.798;2023-11-21T09:09:35;9.05;;;5.97;;
74941;SDS011;63506;49.346;8.798;2023-11-21T09:12:07;6.47;;;5.85;;
74941;SDS011;63506;49.346;8.798;2023-11-21T09:17:12;6.47;;;5.18;;
74941;SDS011;63506;49.346;8.798;2023-11-21T09:19:42;5.63;;;4.68;;
74941;SDS011;63506;49.346;8.798;2023-11-21T09:22:11;5.72;;;4.28;;
74941;SDS011;63506;49.346;8.798;2023-11-21T09:24:40;5.75;;;4.30;;
74941;SDS011;63506;49.346;8.798;2023-11-21T09:27:08;4.28;;;3.88;;
74941;SDS011;63506;49.346;8.798;2023-11-21T09:29:35;3.60;;;3.30;;
74941;SDS011;63506;49.346;8.798;2023-11-21T09:32:04;4.22;;;3.63;;
74941;SDS011;63506;49.346;8.798;2023-11-21T09:34:33;4.45;;;3.25;;
74941;SDS011;63506;49.346;8.798;2023-11-21T09:37:04;4.63;;;3.70;;
74941;SDS011;63506;49.346;8.798;2023-11-21T09:39:34;4.55;;;3.13;;
74941;SDS011;63506;49.346;8.798;2023-11-21T09:42:04;3.38;;;2.88;;
74941;SDS011;63506;49.346;8.798;2023-11-21T09:44:35;2.42;;;1.77;;
74941;SDS011;63506;49.346;8.798;2023-11-21T09:47:06;2.45;;;1.98;;
74941;SDS011;63506;49.346;8.798;2023-11-21T09:49:36;1.52;;;1.30;;
74941;SDS011;63506;49.346;8.798;2023-11-21T09:52:04;2.45;;;1.00;;
74941;SDS011;63506;49.346;8.798;2023-11-21T09:57:07;0.65;;;0.50;;
74941;SDS011;63506;49.346;8.798;2023-11-21T09:59:37;0.65;;;0.65;;
74941;SDS011;63506;49.346;8.798;2023-11-21T10:02:04;2.35;;;1.38;;
74941;SDS011;63506;49.346;8.798;2023-11-21T10:04:33;0.80;;;0.70;;
74941;SDS011;63506;49.346;8.798;2023-11-21T10:07:01;0.93;;;0.75;;
74941;SDS011;63506;49.346;8.798;2023-11-21T10:09:29;1.25;;;0.70;;
74941;SDS011;63506;49.346;8.798;2023-11-21T10:12:00;0.85;;;0.77;;
74941;SDS011;63506;49.346;8.798;2023-11-21T10:14:33;0.70;;;0.50;;
74941;SDS011;63506;49.346;8.798;2023-11-21T10:17:04;0.77;;;0.47;;
74941;SDS011;63506;49.346;8.798;2023-11-21T10:19:35;0.57;;;0.30;;
74941;SDS011;63506;49.346;8.798;2023-11-21T10:22:03;0.85;;;0.40;;
74941;SDS011;63506;49.346;8.798;2023-11-21T10:24:30;0.43;;;0.43;;
74941;SDS011;63506;49.346;8.798;2023-11-21T10:26:57;0.82;;;0.63;;
74941;SDS011;63506;49.346;8.798;2023-11-21T22:29:06;2.40;;;2.17;;
74941;SDS011;63506;49.346;8.798;2023-11-21T22:31:45;1.98;;;1.30;;
74941;SDS011;63506;49.346;8.798;2023-11-21T22:34:17;3.28;;;2.42;;
74941;SDS011;63506;49.346;8.798;2023-11-21T22:36:50;2.35;;;1.90;;
74941;SDS011;63506;49.346;8.798;2023-11-21T22:39:19;2.25;;;1.73;;
74941;SDS011;63506;49.346;8.798;2023-11-21T22:41:56;3.60;;;2.47;;
74941;SDS011;63506;49.346;8.798;2023-11-21T22:44:26;2.83;;;2.00;;
74941;SDS011;63506;49.346;8.798;2023-11-21T22:46:53;2.75;;;2.05;;
74941;SDS011;63506;49.346;8.798;2023-11-21T22:49:25;2.63;;;2.25;;
74941;SDS011;63506;49.346;8.798;2023-11-21T22:51:55;4.03;;;1.67;;
74941;SDS011;63506;49.346;8.798;2023-11-21T22:54:22;1.90;;;1.30;;
74941;SDS011;63506;49.346;8.798;2023-11-21T22:56:49;3.03;;;1.48;;
74941;SDS011;63506;49.346;8.798;2023-11-21T22:59:17;1.67;;;1.25;;
74941;SDS011;63506;49.346;8.798;2023-11-21T23:01:47;2.22;;;1.60;;
74941;SDS011;63506;49.346;8.798;2023-11-21T23:04:15;2.17;;;1.58;;
74941;SDS011;63506;49.346;8.798;2023-11-21T23:06:44;3.65;;;1.45;;
74941;SDS011;63506;49.346;8.798;2023-11-21T23:09:12;1.00;;;0.80;;
74941;SDS011;63506;49.346;8.798;2023-11-21T23:11:41;1.40;;;1.00;;
74941;SDS011;63506;49.346;8.798;2023-11-21T23:14:11;2.28;;;1.10;;
74941;SDS011;63506;49.346;8.798;2023-11-21T23:16:39;1.05;;;0.90;;
74941;SDS011;63506;49.346;8.798;2023-11-21T23:19:07;2.10;;;1.10;;
74941;SDS011;63506;49.346;8.798;2023-11-21T23:21:40;2.03;;;1.05;;
74941;SDS011;63506;49.346;8.798;2023-11-21T23:24:08;1.55;;;1.10;;
74941;SDS011;63506;49.346;8.798;2023-11-21T23:26:36;1.88;;;1.20;;
74941;SDS011;63506;49.346;8.798;2023-11-21T23:29:04;4.45;;;1.00;;
74941;SDS011;63506;49.346;8.798;2023-11-21T23:31:32;1.33;;;1.13;;
74941;SDS011;63506;49.346;8.798;2023-11-21T23:33:59;2.17;;;1.77;;
74941;SDS011;63506;49.346;8.798;2023-11-21T23:36:28;1.38;;;0.90;;
74941;SDS011;63506;49.346;8.798;2023-11-21T23:38:55;1.33;;;0.95;;
74941;SDS011;63506;49.346;8.798;2023-11-21T23:41:23;1.55;;;1.10;;
74941;SDS011;63506;49.346;8.798;2023-11-21T23:43:50;1.50;;;1.13;;
74941;SDS011;63506;49.346;8.798;2023-11-21T23:46:17;1.65;;;1.30;;
74941;SDS011;63506;49.346;8.798;2023-11-21T23:48:45;2.10;;;1.60;;
74941;SDS011;63506;49.346;8.798;2023-11-21T23:51:18;1.75;;;1.20;;
74941;SDS011;63506;49.346;8.798;2023-11-21T23:53:47;2.20;;;1.63;;
74941;SDS011;63506;49.346;8.798;2023-11-21T23:56:14;1.20;;;0.90;;
74941;SDS011;63506;49.346;8.798;2023-11-21T23:58:41;2.13;;;1.60;;
